Time;durP1;ratioP1;P1;durP2;ratioP2;P2;SDS_P1;SDS_P2;PMS_P1;PMS_P2;Temp;Humidity;BMP_temperature;BMP_pressure;BME280_temperature;BME280_humidity;BME280_pressure;Samples;Min_cycle;Max_cycle;Signal;HPM_P1;HPM_P2
2023/10/19 00:00:44;;;;;;;10.00;5.80;;;;;;;4.90;100.00;99992.20;104902;1259;66906;-48
2023/10/19 00:03:12;;;;;;;8.00;6.20;;;;;;;4.88;100.00;99994.72;108940;1257;71603;-47
2023/10/19 00:05:41;;;;;;;9.50;7.00;;;;;;;4.87;100.00;99995.08;106874;1260;60715;-47
2023/10/19 00:08:15;;;;;;;10.60;7.10;;;;;;;4.86;100.00;99994.95;104859;1260;60524;-47
2023/10/19 00:10:44;;;;;;;10.70;6.30;;;;;;;4.82;100.00;99994.49;104835;1259;74336;-48
2023/10/19 00:13:13;;;;;;;11.00;7.20;;;;;;;4.79;100.00;99999.19;105169;1257;67546;-47
2023/10/19 00:15:48;;;;;;;8.70;5.80;;;;;;;4.75;100.00;100000.52;107015;1256;71596;-50
2023/10/19 00:23:35;;;;;;;11.30;6.30;;;;;;;4.66;100.00;99996.98;106568;1260;73923;-51
2023/10/19 00:26:15;;;;;;;8.70;5.70;;;;;;;4.63;100.00;99998.98;104721;1257;68383;-49
2023/10/19 00:28:49;;;;;;;7.70;6.70;;;;;;;4.59;100.00;99997.64;105250;1259;72743;-48
2023/10/19 00:31:19;;;;;;;8.60;5.80;;;;;;;4.55;100.00;100000.56;104573;1254;60437;-49
2023/10/19 00:33:51;;;;;;;9.00;5.70;;;;;;;4.53;100.00;99993.13;105368;1258;142984;-49
2023/10/19 00:37:07;;;;;;;7.80;6.20;;;;;;;4.53;100.00;100008.75;101688;1295;601160;-51
2023/10/19 00:39:43;;;;;;;10.00;5.80;;;;;;;4.51;100.00;100005.78;105358;1266;59340;-48
2023/10/19 00:42:11;;;;;;;7.20;5.80;;;;;;;4.51;100.00;100004.01;103952;1270;60139;-49
2023/10/19 00:44:42;;;;;;;6.80;5.60;;;;;;;4.49;100.00;100000.86;103808;1264;72458;-50
2023/10/19 00:47:13;;;;;;;9.60;5.70;;;;;;;4.49;100.00;100004.42;104021;1264;67582;-49
2023/10/19 00:49:43;;;;;;;8.00;6.10;;;;;;;4.47;100.00;100002.50;105665;1257;183115;-49
2023/10/19 00:52:11;;;;;;;12.60;6.90;;;;;;;4.45;100.00;99998.98;105336;1253;59285;-45
2023/10/19 00:54:51;;;;;;;9.80;6.70;;;;;;;4.43;100.00;99995.80;105605;1254;59979;-48
2023/10/19 00:57:35;;;;;;;7.30;6.00;;;;;;;4.41;100.00;99991.42;108822;1254;72362;-48
2023/10/19 01:00:12;;;;;;;9.70;6.00;;;;;;;4.38;100.00;99994.67;105611;1259;65509;-47
2023/10/19 01:02:46;;;;;;;9.20;5.90;;;;;;;4.35;100.00;100000.05;104998;1254;72764;-46
2023/10/19 01:05:14;;;;;;;9.90;6.40;;;;;;;4.31;100.00;100002.46;105817;1255;60854;-47
2023/10/19 01:07:44;;;;;;;8.90;5.20;;;;;;;4.28;100.00;100006.77;104992;1259;59647;-48
2023/10/19 01:10:19;;;;;;;5.60;5.10;;;;;;;4.25;100.00;100005.94;105677;1255;71849;-48
2023/10/19 01:12:46;;;;;;;8.80;5.00;;;;;;;4.24;100.00;99999.59;105546;1254;67260;-47
2023/10/19 01:15:19;;;;;;;8.90;5.70;;;;;;;4.23;100.00;100001.55;105025;1259;71928;-47
2023/10/19 01:17:57;;;;;;;5.80;4.80;;;;;;;4.22;100.00;99997.12;105105;1257;60235;-47
2023/10/19 01:23:44;;;;;;;8.40;5.40;;;;;;;4.22;100.00;99990.02;105372;1259;73359;-45
2023/10/19 01:28:25;;;;;;;7.20;5.40;;;;;;;4.21;100.00;99990.92;105063;1258;73050;-47
2023/10/19 01:30:53;;;;;;;7.60;6.20;;;;;;;4.18;100.00;99990.77;105147;1258;60155;-46
2023/10/19 01:33:21;;;;;;;7.60;6.40;;;;;;;4.15;100.00;99986.77;105009;1254;60525;-49
2023/10/19 01:38:34;;;;;;;10.50;6.10;;;;;;;4.07;100.00;99993.83;105073;1257;66594;-47
2023/10/19 01:41:21;;;;;;;12.90;7.20;;;;;;;4.03;100.00;99997.10;104867;1254;72701;-48
2023/10/19 01:43:50;;;;;;;8.90;7.10;;;;;;;3.98;100.00;99994.02;105911;1254;59752;-48
2023/10/19 01:46:24;;;;;;;10.10;5.80;;;;;;;3.93;100.00;99992.14;104830;1254;60097;-48
2023/10/19 01:48:55;;;;;;;;;;;;;;;3.90;100.00;99995.77;104833;1254;75061;-47
2023/10/19 01:51:25;;;;;;;9.90;5.70;;;;;;;3.87;100.00;99994.73;104831;1254;65851;-47
2023/10/19 01:53:55;;;;;;;6.10;5.20;;;;;;;3.85;100.00;99996.55;105560;1258;71768;-47
2023/10/19 01:56:23;;;;;;;7.00;5.40;;;;;;;3.84;100.00;99994.59;108865;1256;60081;-47
2023/10/19 01:58:54;;;;;;;8.10;5.90;;;;;;;3.84;100.00;99993.36;108834;1254;60072;-48
2023/10/19 02:01:28;;;;;;;6.80;6.10;;;;;;;3.85;100.00;99993.89;109050;1254;71881;-49
2023/10/19 02:04:00;;;;;;;;;;;;;;;3.86;100.00;99995.46;105102;1254;68045;-48
2023/10/19 02:06:38;;;;;;;8.40;4.90;;;;;;;3.89;100.00;99995.78;104714;1257;71820;-47
2023/10/19 02:09:17;;;;;;;10.60;6.30;;;;;;;3.92;100.00;99993.21;104895;1253;60172;-49
2023/10/19 02:11:46;;;;;;;8.20;6.10;;;;;;;3.96;100.00;99994.41;107333;1254;59660;-47
2023/10/19 02:14:15;;;;;;;9.20;5.70;;;;;;;3.99;100.00;99990.80;108946;1252;72994;-49
2023/10/19 02:16:44;;;;;;;7.90;5.50;;;;;;;4.00;100.00;99987.56;106886;1253;68054;-48
2023/10/19 02:19:11;;;;;;;7.80;6.20;;;;;;;4.03;100.00;99985.21;104830;1260;72738;-48
2023/10/19 02:21:42;;;;;;;9.50;6.40;;;;;;;4.03;100.00;99985.56;104850;1258;59638;-46
2023/10/19 02:24:14;;;;;;;8.90;7.40;;;;;;;4.01;100.00;99987.37;109041;1254;58834;-48
2023/10/19 02:26:42;;;;;;;9.10;7.00;;;;;;;3.98;100.00;99983.88;109067;1254;75280;-49
2023/10/19 02:29:10;;;;;;;13.40;6.60;;;;;;;3.94;100.00;99983.08;108987;1253;67244;-49
2023/10/19 02:31:37;;;;;;;10.50;7.40;;;;;;;3.91;100.00;99979.59;108922;1254;72719;-50
2023/10/19 02:34:10;;;;;;;9.50;6.40;;;;;;;3.88;100.00;99977.85;108838;1254;59368;-50
2023/10/19 02:36:38;;;;;;;8.10;6.10;;;;;;;3.87;100.00;99977.17;109055;1253;58795;-49
2023/10/19 02:39:07;;;;;;;6.50;5.90;;;;;;;3.87;100.00;99980.02;108960;1253;73181;-48
2023/10/19 02:41:35;;;;;;;5.80;5.20;;;;;;;3.88;100.00;99982.14;108879;1254;65459;-49
2023/10/19 02:44:08;;;;;;;6.00;5.00;;;;;;;3.88;100.00;99986.73;108983;1254;70455;-48
2023/10/19 02:46:39;;;;;;;5.30;4.60;;;;;;;3.90;100.00;99987.95;109022;1256;59656;-49
2023/10/19 02:49:10;;;;;;;9.80;5.60;;;;;;;3.92;100.00;99989.67;108769;1254;60129;-49
2023/10/19 02:51:38;;;;;;;6.50;5.80;;;;;;;3.93;100.00;99985.56;108989;1254;73127;-50
2023/10/19 02:54:07;;;;;;;8.30;6.40;;;;;;;3.94;100.00;99989.63;109047;1254;66528;-49
2023/10/19 02:56:35;;;;;;;6.90;5.90;;;;;;;3.95;100.00;99989.08;109087;1256;71760;-49
2023/10/19 02:59:03;;;;;;;7.10;5.90;;;;;;;3.93;100.00;99991.23;108218;1254;59139;-49
2023/10/19 03:01:33;;;;;;;8.40;6.40;;;;;;;3.93;100.00;99987.17;106946;1254;59752;-49
2023/10/19 03:04:01;;;;;;;11.50;7.10;;;;;;;3.91;100.00;99984.39;105163;1259;73128;-46
2023/10/19 03:06:33;;;;;;;8.10;7.20;;;;;;;3.88;100.00;99982.64;104961;1255;68529;-48
2023/10/19 03:09:12;;;;;;;9.60;7.30;;;;;;;3.86;100.00;99984.63;105383;1257;72699;-50
2023/10/19 03:11:40;;;;;;;9.10;7.00;;;;;;;3.84;100.00;99982.70;104973;1262;59698;-47
2023/10/19 03:14:09;;;;;;;8.70;6.40;;;;;;;3.81;100.00;99983.13;104626;1254;60082;-48
2023/10/19 03:16:36;;;;;;;11.70;7.70;;;;;;;3.79;100.00;99982.43;104695;1259;74124;-48
2023/10/19 03:19:04;;;;;;;9.00;6.00;;;;;;;3.78;100.00;99979.97;106397;1254;66480;-48
2023/10/19 03:21:41;;;;;;;7.50;5.60;;;;;;;3.79;100.00;99980.84;104660;1254;71802;-49
2023/10/19 03:24:23;;;;;;;9.70;6.60;;;;;;;3.79;100.00;99979.95;104831;1259;59759;-48
2023/10/19 03:26:51;;;;;;;7.50;6.70;;;;;;;3.79;100.00;99976.42;109002;1254;59224;-48
2023/10/19 03:29:26;;;;;;;7.80;6.40;;;;;;;3.79;100.00;99976.05;107080;1258;73542;-48
2023/10/19 03:31:53;;;;;;;12.20;7.50;;;;;;;3.81;100.00;99974.44;104808;1253;66870;-48
2023/10/19 03:34:23;;;;;;;9.60;6.80;;;;;;;3.81;100.00;99974.42;105152;1254;71453;-48
2023/10/19 03:36:51;;;;;;;10.90;7.30;;;;;;;3.81;100.00;99976.91;105248;1259;59915;-47
2023/10/19 03:39:21;;;;;;;11.30;8.20;;;;;;;3.81;100.00;99977.27;104747;1254;60499;-48
2023/10/19 03:41:52;;;;;;;11.90;8.50;;;;;;;3.78;100.00;99976.42;105831;1254;73572;-49
2023/10/19 03:44:24;;;;;;;11.10;8.10;;;;;;;3.75;100.00;99976.64;104750;1254;66784;-47
2023/10/19 03:47:04;;;;;;;12.40;9.70;;;;;;;3.72;100.00;99974.59;105186;1254;71461;-48
2023/10/19 03:49:36;;;;;;;11.80;9.50;;;;;;;3.67;100.00;99968.98;105592;1254;59647;-49
2023/10/19 03:54:40;;;;;;;9.80;7.40;;;;;;;3.61;100.00;99971.39;104841;1254;73716;-47
2023/10/19 03:57:12;;;;;;;11.20;6.30;;;;;;;3.60;100.00;99974.25;104799;1257;66462;-49
2023/10/19 03:59:39;;;;;;;10.90;7.00;;;;;;;3.58;100.00;99975.52;105681;1253;73381;-47
2023/10/19 04:02:14;;;;;;;11.40;6.90;;;;;;;3.58;100.00;99972.86;106368;1253;60981;-48
2023/10/19 04:04:48;;;;;;;9.40;7.00;;;;;;;3.57;100.00;99975.36;106083;1258;59544;-47
2023/10/19 04:07:22;;;;;;;11.50;6.60;;;;;;;3.56;100.00;99977.17;104789;1253;71754;-47
2023/10/19 04:10:09;;;;;;;10.20;6.50;;;;;;;3.54;100.00;99978.43;104915;1254;66498;-50
2023/10/19 04:12:41;;;;;;;12.20;7.50;;;;;;;3.53;100.00;99980.05;105740;1256;71476;-49
2023/10/19 04:17:46;;;;;;;20.80;11.10;;;;;;;3.52;100.00;99977.57;104678;1253;59403;-49
2023/10/19 04:22:46;;;;;;;17.50;11.20;;;;;;;3.47;100.00;99984.58;104818;1254;66472;-48
2023/10/19 04:25:15;;;;;;;15.10;11.80;;;;;;;3.44;100.00;99982.14;108845;1254;71473;-50
2023/10/19 04:27:43;;;;;;;17.10;11.60;;;;;;;3.42;100.00;99981.82;108932;1256;59743;-48
2023/10/19 04:30:24;;;;;;;16.60;11.90;;;;;;;3.39;100.00;99981.52;106102;1256;61889;-49
2023/10/19 04:32:52;;;;;;;15.40;10.40;;;;;;;3.35;100.00;99981.21;106897;1258;73472;-50
2023/10/19 04:35:23;;;;;;;14.50;9.90;;;;;;;3.33;100.00;99981.95;104612;1254;67790;-49
2023/10/19 04:37:51;;;;;;;19.50;11.50;;;;;;;3.31;100.00;99979.70;104901;1254;72771;-49
2023/10/19 04:40:20;;;;;;;19.00;10.50;;;;;;;3.29;100.00;99975.98;105455;1256;59698;-48
2023/10/19 04:42:48;;;;;;;25.40;12.20;;;;;;;3.29;100.00;99976.70;108890;1253;59161;-49
2023/10/19 04:45:15;;;;;;;34.30;16.40;;;;;;;3.31;100.00;99977.90;108917;1254;71460;-49
2023/10/19 04:47:42;;;;;;;29.00;14.70;;;;;;;3.33;100.00;99980.17;109196;1254;67574;-48
2023/10/19 04:50:10;;;;;;;25.50;13.70;;;;;;;3.34;100.00;99984.23;107601;1254;73001;-49
2023/10/19 04:52:38;;;;;;;21.90;13.20;;;;;;;3.36;100.00;99986.70;105071;1254;60408;-48
2023/10/19 04:55:06;;;;;;;19.00;12.20;;;;;;;3.37;100.00;99990.41;105468;1259;60603;-48
2023/10/19 04:57:33;;;;;;;15.60;10.70;;;;;;;3.37;100.00;99989.35;105694;1253;72707;-48
2023/10/19 05:00:01;;;;;;;16.10;12.50;;;;;;;3.36;100.00;99991.48;104929;1259;66305;-48
2023/10/19 05:02:29;;;;;;;13.70;10.70;;;;;;;3.36;100.00;99988.29;104871;1259;72698;-48
2023/10/19 05:04:57;;;;;;;13.80;10.70;;;;;;;3.36;100.00;99991.66;104947;1254;60549;-46
2023/10/19 05:07:24;;;;;;;17.40;11.40;;;;;;;3.36;100.00;99990.08;109070;1253;58774;-49
2023/10/19 05:09:53;;;;;;;12.50;9.60;;;;;;;3.35;100.00;99989.55;109019;1253;73923;-50
2023/10/19 05:12:21;;;;;;;13.00;9.90;;;;;;;3.37;100.00;99994.31;109051;1253;66924;-48
2023/10/19 05:14:48;;;;;;;15.00;8.40;;;;;;;3.44;100.00;99994.02;109093;1253;70517;-49
2023/10/19 05:17:16;;;;;;;11.60;8.90;;;;;;;3.52;100.00;99994.96;109068;1254;63109;-49
2023/10/19 05:19:44;;;;;;;9.40;7.40;;;;;;;3.62;100.00;99995.16;109073;1253;59008;-49
2023/10/19 05:22:11;;;;;;;9.90;7.80;;;;;;;3.73;100.00;99998.34;109135;1254;74365;-49
2023/10/19 05:24:38;;;;;;;11.20;8.30;;;;;;;3.86;100.00;100000.27;109012;1253;66646;-49
2023/10/19 05:27:06;;;;;;;13.20;8.40;;;;;;;3.97;100.00;99998.45;109082;1253;71823;-50
2023/10/19 05:29:38;;;;;;;11.40;8.70;;;;;;;4.09;100.00;100001.45;109063;1255;59349;-49
2023/10/19 05:32:05;;;;;;;9.90;8.90;;;;;;;4.18;100.00;100000.91;109071;1254;58755;-49
2023/10/19 05:34:35;;;;;;;14.70;9.10;;;;;;;4.25;100.00;99998.48;109075;1254;73774;-49
2023/10/19 05:37:05;;;;;;;12.10;7.90;;;;;;;4.30;100.00;99999.64;108942;1254;66851;-48
2023/10/19 05:39:33;;;;;;;11.40;8.70;;;;;;;4.35;100.00;100003.44;108936;1254;72690;-49
2023/10/19 05:42:01;;;;;;;9.50;8.60;;;;;;;4.37;100.00;100004.46;108887;1256;59366;-50
2023/10/19 05:44:30;;;;;;;12.70;9.00;;;;;;;4.39;100.00;100006.75;105111;1257;60516;-48
2023/10/19 05:46:58;;;;;;;14.40;10.10;;;;;;;4.39;100.00;100008.36;105453;1256;74359;-48
2023/10/19 05:49:28;;;;;;;13.60;10.40;;;;;;;4.40;100.00;100009.91;104709;1259;66656;-49
2023/10/19 05:51:56;;;;;;;8.70;7.80;;;;;;;4.43;100.00;100009.68;108904;1256;74915;-49
2023/10/19 05:54:24;;;;;;;10.70;8.40;;;;;;;4.48;100.00;100010.48;107706;1256;60955;-48
2023/10/19 05:56:52;;;;;;;11.40;8.70;;;;;;;4.54;100.00;100011.05;104713;1259;60984;-47
2023/10/19 05:59:20;;;;;;;8.90;7.10;;;;;;;4.63;100.00;100014.45;106581;1256;73938;-47
2023/10/19 06:01:48;;;;;;;13.40;7.80;;;;;;;4.72;100.00;100011.42;104795;1259;67151;-48
2023/10/19 06:04:16;;;;;;;8.50;7.50;;;;;;;4.79;100.00;100014.48;104590;1254;72949;-48
2023/10/19 06:06:48;;;;;;;13.70;9.60;;;;;;;4.88;100.00;100018.55;108803;1254;58904;-49
2023/10/19 06:09:17;;;;;;;13.50;9.50;;;;;;;4.98;100.00;100018.33;105742;1258;60412;-48
2023/10/19 06:11:45;;;;;;;18.30;10.70;;;;;;;5.06;100.00;100020.83;107031;1254;73905;-49
2023/10/19 06:14:13;;;;;;;11.80;9.20;;;;;;;5.13;100.00;100026.73;105240;1254;65978;-49
2023/10/19 06:16:40;;;;;;;13.60;8.40;;;;;;;5.19;100.00;100026.05;104701;1257;72726;-49
2023/10/19 06:19:08;;;;;;;19.30;10.50;;;;;;;5.24;100.00;100023.45;104793;1259;61017;-48
2023/10/19 06:21:36;;;;;;;9.90;8.80;;;;;;;5.31;100.00;100019.74;104931;1256;60531;-48
2023/10/19 06:24:04;;;;;;;11.10;9.40;;;;;;;5.37;100.00;100019.98;104834;1254;74286;-49
2023/10/19 06:26:31;;;;;;;13.30;10.10;;;;;;;5.42;100.00;100014.70;104719;1255;68495;-49
2023/10/19 06:28:59;;;;;;;12.00;10.80;;;;;;;5.48;100.00;100014.01;104619;1257;71462;-48
2023/10/19 06:31:28;;;;;;;17.10;13.80;;;;;;;5.55;100.00;100012.42;104727;1259;60965;-48
2023/10/19 06:33:57;;;;;;;21.70;17.80;;;;;;;5.62;100.00;100018.11;104949;1259;60642;-49
2023/10/19 06:36:25;;;;;;;28.70;18.50;;;;;;;5.71;100.00;100017.73;105589;1259;73883;-49
2023/10/19 06:38:54;;;;;;;21.80;15.60;;;;;;;5.77;100.00;100017.59;104772;1255;67579;-49
2023/10/19 06:41:22;;;;;;;20.20;14.70;;;;;;;5.83;100.00;100018.49;104890;1257;71531;-49
2023/10/19 06:43:50;;;;;;;15.50;11.80;;;;;;;5.90;100.00;100014.24;105867;1256;60049;-48
2023/10/19 06:46:17;;;;;;;12.60;11.00;;;;;;;5.97;100.00;100009.80;105600;1259;60415;-48
2023/10/19 06:48:45;;;;;;;14.20;11.70;;;;;;;6.04;100.00;100005.88;104935;1259;74844;-47
2023/10/19 06:51:12;;;;;;;14.00;11.40;;;;;;;6.10;100.00;100006.44;104930;1259;66571;-48
2023/10/19 06:53:41;;;;;;;16.80;12.80;;;;;;;6.16;100.00;100007.88;104787;1256;72636;-47
2023/10/19 06:56:08;;;;;;;13.10;11.30;;;;;;;6.19;100.00;100005.68;104729;1259;60563;-48
2023/10/19 06:58:36;;;;;;;18.20;11.50;;;;;;;6.21;100.00;100003.46;104839;1254;60748;-48
2023/10/19 07:01:08;;;;;;;14.60;10.90;;;;;;;6.25;100.00;100004.44;106521;1257;72648;-48
2023/10/19 07:03:36;;;;;;;14.10;10.20;;;;;;;6.31;100.00;100006.77;104875;1259;66758;-49
2023/10/19 07:06:04;;;;;;;13.00;10.30;;;;;;;6.36;100.00;100004.86;104685;1254;72902;-48
2023/10/19 07:08:37;;;;;;;14.50;9.90;;;;;;;6.41;100.00;100002.58;105338;1257;60443;-46
2023/10/19 07:11:04;;;;;;;10.70;9.30;;;;;;;6.50;100.00;99998.95;104822;1259;60334;-47
2023/10/19 07:13:33;;;;;;;11.10;9.10;;;;;;;6.58;100.00;99996.73;105251;1254;73709;-48
2023/10/19 07:16:03;;;;;;;11.00;8.50;;;;;;;6.68;100.00;99994.84;104660;1254;67531;-47
2023/10/19 07:18:31;;;;;;;11.00;9.10;;;;;;;6.80;100.00;99995.92;107283;1256;71538;-49
2023/10/19 07:21:05;;;;;;;12.30;9.80;;;;;;;6.94;100.00;99991.41;104756;1254;60556;-48
2023/10/19 07:23:33;;;;;;;11.50;8.30;;;;;;;7.07;100.00;99984.59;105528;1259;60523;-48
2023/10/19 07:26:00;;;;;;;18.30;11.00;;;;;;;7.18;100.00;99983.02;104682;1257;76270;-47
2023/10/19 07:28:28;;;;;;;18.10;12.80;;;;;;;7.29;100.00;99985.02;105420;1254;67115;-48
2023/10/19 07:30:56;;;;;;;14.90;11.70;;;;;;;7.38;100.00;99980.94;104594;1255;72855;-49
2023/10/19 07:33:24;;;;;;;17.70;14.10;;;;;;;7.47;100.00;99978.89;108243;1256;59935;-49
2023/10/19 07:35:54;;;;;;;18.00;13.80;;;;;;;7.58;100.00;99978.88;104792;1259;60464;-48
2023/10/19 07:38:22;;;;;;;12.90;11.00;;;;;;;7.71;100.00;99977.77;105264;1254;74335;-48
2023/10/19 07:40:53;;;;;;;11.50;9.80;;;;;;;7.81;100.00;99975.27;105386;1254;66015;-49
2023/10/19 07:43:21;;;;;;;9.20;8.40;;;;;;;7.90;100.00;99977.27;104700;1257;71466;-47
2023/10/19 07:45:49;;;;;;;11.80;9.10;;;;;;;7.98;100.00;99975.94;105230;1257;60754;-48
2023/10/19 07:48:17;;;;;;;11.60;8.90;;;;;;;8.05;100.00;99975.16;108717;1253;59333;-47
2023/10/19 07:50:44;;;;;;;10.60;7.10;;;;;;;8.12;100.00;99971.69;104834;1254;72662;-49
2023/10/19 07:53:12;;;;;;;9.50;8.00;;;;;;;8.19;100.00;99972.31;104830;1254;68029;-49
2023/10/19 07:55:39;;;;;;;9.20;8.20;;;;;;;8.27;100.00;99975.81;104793;1257;73056;-48
2023/10/19 07:58:07;;;;;;;9.60;8.00;;;;;;;8.33;100.00;99973.13;104818;1255;60591;-48
2023/10/19 08:00:35;;;;;;;10.60;9.20;;;;;;;8.40;100.00;99970.56;105226;1254;60542;-48
2023/10/19 08:03:04;;;;;;;13.50;10.60;;;;;;;8.47;100.00;99966.18;104607;1254;74698;-48
2023/10/19 08:05:33;;;;;;;18.00;11.80;;;;;;;8.57;100.00;99965.83;109063;1253;66595;-49
2023/10/19 08:08:03;;;;;;;15.80;11.80;;;;;;;8.65;100.00;99963.35;109033;1254;71894;-49
2023/10/19 08:10:31;;;;;;;15.80;11.40;;;;;;;8.74;100.00;99962.87;109010;1254;60529;-49
2023/10/19 08:12:59;;;;;;;13.40;11.10;;;;;;;8.82;100.00;99960.95;109042;1254;60157;-49
2023/10/19 08:15:29;;;;;;;13.00;11.10;;;;;;;8.90;100.00;99961.02;109068;1254;72628;-50
2023/10/19 08:17:56;;;;;;;10.90;8.40;;;;;;;8.94;100.00;99958.86;109006;1254;68163;-49
2023/10/19 08:20:24;;;;;;;11.30;8.80;;;;;;;8.98;100.00;99953.54;109022;1254;71439;-50
2023/10/19 08:22:54;;;;;;;10.40;7.60;;;;;;;9.02;100.00;99957.49;108895;1254;60076;-49
2023/10/19 08:25:22;;;;;;;9.60;7.50;;;;;;;9.07;100.00;99959.27;109040;1253;58842;-50
2023/10/19 08:27:50;;;;;;;13.60;8.10;;;;;;;9.10;100.00;99959.87;108970;1258;72574;-49
2023/10/19 08:30:18;;;;;;;9.10;7.60;;;;;;;9.10;100.00;99958.96;106663;1259;66478;-49
2023/10/19 08:32:49;;;;;;;8.00;6.70;;;;;;;9.11;100.00;99954.61;104680;1257;71503;-49
2023/10/19 08:35:24;;;;;;;7.70;6.80;;;;;;;9.16;100.00;99951.59;104741;1254;60978;-48
2023/10/19 08:37:57;;;;;;;8.30;5.90;;;;;;;9.23;100.00;99959.54;108991;1253;58824;-50
2023/10/19 08:40:26;;;;;;;6.20;5.70;;;;;;;9.30;100.00;99953.88;108934;1256;73914;-50
2023/10/19 08:42:55;;;;;;;6.50;4.70;;;;;;;9.38;100.00;99951.95;106231;1258;68225;-49
2023/10/19 08:45:22;;;;;;;5.60;5.00;;;;;;;9.45;100.00;99953.97;104993;1254;71510;-49
2023/10/19 08:48:00;;;;;;;6.60;6.00;;;;;;;9.52;100.00;99951.02;104842;1260;61416;-50
2023/10/19 08:50:29;;;;;;;9.40;6.20;;;;;;;9.55;100.00;99952.66;104901;1258;60517;-48
2023/10/19 08:52:59;;;;;;;6.60;6.00;;;;;;;9.57;100.00;99955.27;104780;1254;73924;-47
2023/10/19 08:55:27;;;;;;;6.00;5.50;;;;;;;9.60;100.00;99957.34;105179;1254;67820;-48
2023/10/19 08:58:00;;;;;;;7.50;6.80;;;;;;;9.65;100.00;99961.59;108960;1254;72744;-50
2023/10/19 09:00:28;;;;;;;8.70;6.00;;;;;;;9.71;100.00;99952.19;107603;1254;59135;-49
2023/10/19 09:02:59;;;;;;;5.90;5.30;;;;;;;9.77;100.00;99951.40;104617;1253;61290;-49
2023/10/19 09:05:27;;;;;;;5.20;4.30;;;;;;;9.85;100.00;99954.47;108821;1254;72073;-50
2023/10/19 09:07:55;;;;;;;4.60;4.20;;;;;;;9.91;100.00;99953.31;105556;1254;69381;-49
2023/10/19 09:10:26;;;;;;;6.00;4.60;;;;;;;9.98;100.00;99953.91;104776;1254;73257;-49
2023/10/19 09:13:10;;;;;;;4.60;4.20;;;;;;;10.03;100.00;99945.28;105014;1259;60622;-49
2023/10/19 09:15:38;;;;;;;5.60;4.50;;;;;;;10.09;100.00;99944.64;104690;1254;59373;-49
2023/10/19 09:18:16;;;;;;;4.50;3.50;;;;;;;10.16;100.00;99943.10;106347;1259;73944;-49
2023/10/19 09:20:54;;;;;;;3.50;3.20;;;;;;;10.21;100.00;99947.94;104676;1259;70528;-48
2023/10/19 09:23:22;;;;;;;3.40;3.10;;;;;;;10.24;100.00;99944.02;108480;1254;70635;-49
2023/10/19 09:25:50;;;;;;;3.90;3.00;;;;;;;10.26;100.00;99937.32;104499;1254;61735;-49
2023/10/19 09:28:17;;;;;;;3.80;3.30;;;;;;;10.26;100.00;99935.88;104772;1253;60526;-49
2023/10/19 09:30:45;;;;;;;6.30;3.70;;;;;;;10.29;100.00;99934.66;104747;1253;72637;-49
2023/10/19 09:33:14;;;;;;;2.90;2.70;;;;;;;10.33;100.00;99933.59;104696;1254;66430;-49
2023/10/19 09:35:45;;;;;;;3.80;3.10;;;;;;;10.36;100.00;99932.19;105654;1257;71450;-48
2023/10/19 09:38:13;;;;;;;4.10;2.90;;;;;;;10.41;100.00;99932.70;104847;1255;60562;-48
2023/10/19 09:40:40;;;;;;;3.30;3.10;;;;;;;10.46;100.00;99935.70;104721;1254;60519;-49
2023/10/19 09:43:10;;;;;;;3.00;2.10;;;;;;;10.50;100.00;99932.27;104682;1254;73936;-47
2023/10/19 09:45:41;;;;;;;3.20;2.90;;;;;;;10.54;100.00;99932.63;105088;1254;68060;-48
2023/10/19 09:48:16;;;;;;;3.80;3.50;;;;;;;10.58;100.00;99931.34;105079;1257;71526;-49
2023/10/19 09:50:48;;;;;;;2.20;2.00;;;;;;;10.64;100.00;99926.11;104729;1260;60558;-48
2023/10/19 09:53:15;;;;;;;2.70;2.50;;;;;;;10.67;100.00;99922.54;105224;1258;60492;-49
2023/10/19 09:55:43;;;;;;;3.20;2.90;;;;;;;10.70;100.00;99918.46;104870;1260;73893;-48
2023/10/19 09:58:19;;;;;;;3.90;3.50;;;;;;;10.71;100.00;99914.96;104801;1255;67159;-49
2023/10/19 10:00:49;;;;;;;4.90;4.20;;;;;;;10.73;100.00;99907.52;104933;1255;71731;-48
2023/10/19 10:03:42;;;;;;;3.70;3.20;;;;;;;10.77;100.00;99904.10;105554;1254;60561;-49
2023/10/19 10:06:12;;;;;;;3.80;3.40;;;;;;;10.83;100.00;99900.07;105315;1259;61605;-50
2023/10/19 10:08:40;;;;;;;5.30;2.90;;;;;;;10.86;100.00;99897.95;104886;1254;72651;-49
2023/10/19 10:11:26;;;;;;;3.20;2.90;;;;;;;10.86;100.00;99896.69;104913;1254;67740;-49
2023/10/19 10:13:58;;;;;;;2.80;2.50;;;;;;;10.83;100.00;99900.95;105264;1253;73380;-49
2023/10/19 10:16:26;;;;;;;2.30;1.90;;;;;;;10.82;100.00;99898.48;105787;1255;60460;-50
2023/10/19 10:18:58;;;;;;;4.30;3.50;;;;;;;10.83;100.00;99897.71;105153;1259;60511;-50
2023/10/19 10:21:27;;;;;;;5.10;3.40;;;;;;;10.83;100.00;99893.21;107099;1254;72623;-49
2023/10/19 10:23:57;;;;;;;4.20;3.30;;;;;;;10.84;100.00;99884.93;105150;1259;68032;-47
2023/10/19 10:26:26;;;;;;;5.50;3.60;;;;;;;10.88;100.00;99877.23;106465;1253;71476;-48
2023/10/19 10:29:22;;;;;;;4.20;3.90;;;;;;;10.93;100.00;99875.02;107000;1259;60149;-49
2023/10/19 10:31:50;;;;;;;3.20;3.00;;;;;;;10.98;100.00;99867.02;107097;1258;60093;-49
2023/10/19 10:34:33;;;;;;;3.50;3.10;;;;;;;11.03;100.00;99871.28;108917;1254;72694;-49
2023/10/19 10:37:07;;;;;;;3.10;2.80;;;;;;;11.08;100.00;99868.35;105064;1259;66789;-48
2023/10/19 10:39:39;;;;;;;2.90;2.60;;;;;;;11.10;100.00;99865.70;105083;1254;71542;-50
2023/10/19 10:42:08;;;;;;;3.80;3.50;;;;;;;11.14;100.00;99865.55;104786;1254;60564;-48
2023/10/19 10:44:43;;;;;;;3.60;3.30;;;;;;;11.15;100.00;99859.89;104737;1254;60536;-48
2023/10/19 10:47:10;;;;;;;;;;;;;;;11.17;100.00;99860.89;104893;1260;73923;-50
2023/10/19 10:49:55;;;;;;;5.40;3.00;;;;;;;11.18;100.00;99862.09;104652;1262;68639;-49
2023/10/19 10:52:33;;;;;;;4.20;3.20;;;;;;;11.20;100.00;99861.29;105067;1254;71474;-48
2023/10/19 10:55:12;;;;;;;3.50;3.20;;;;;;;11.21;100.00;99859.98;105837;1259;60597;-49
2023/10/19 10:57:43;;;;;;;3.10;2.40;;;;;;;11.22;100.00;99859.75;105514;1258;60603;-48
2023/10/19 11:00:15;;;;;;;4.40;4.00;;;;;;;11.23;100.00;99855.54;105043;1260;72588;-48
2023/10/19 11:02:45;;;;;;;5.80;3.50;;;;;;;11.24;100.00;99860.36;105755;1259;67731;-48
2023/10/19 11:05:14;;;;;;;4.50;3.80;;;;;;;11.24;100.00;99856.40;109046;1253;73834;-49
2023/10/19 11:08:14;;;;;;;6.00;4.50;;;;;;;11.23;100.00;99853.02;109072;1253;58952;-50
2023/10/19 11:10:44;;;;;;;4.80;3.40;;;;;;;11.25;100.00;99849.01;109028;1254;61737;-50
2023/10/19 11:13:13;;;;;;;4.10;2.90;;;;;;;11.25;100.00;99847.53;109012;1254;74025;-50
2023/10/19 11:15:53;;;;;;;3.40;3.00;;;;;;;11.26;100.00;99839.44;109152;1254;68013;-49
2023/10/19 11:18:41;;;;;;;5.40;4.10;;;;;;;11.27;100.00;99842.77;109034;1256;71456;-49
2023/10/19 11:21:09;;;;;;;5.70;3.80;;;;;;;11.29;100.00;99839.98;109134;1254;59060;-49
2023/10/19 11:23:56;;;;;;;6.00;5.40;;;;;;;11.33;100.00;99841.73;109059;1254;58557;-48
2023/10/19 11:26:27;;;;;;;5.10;4.70;;;;;;;11.34;100.00;99841.70;109024;1254;72665;-50
2023/10/19 11:28:58;;;;;;;4.80;4.40;;;;;;;11.35;100.00;99832.86;109090;1253;69088;-50
2023/10/19 11:31:26;;;;;;;6.70;5.00;;;;;;;11.36;100.00;99826.50;109094;1254;72739;-50
2023/10/19 11:33:55;;;;;;;6.90;5.10;;;;;;;11.36;100.00;99818.61;109108;1254;60203;-49
2023/10/19 11:36:24;;;;;;;6.50;4.40;;;;;;;11.37;100.00;99817.86;109022;1254;62294;-50
2023/10/19 11:38:52;;;;;;;5.30;4.80;;;;;;;11.37;100.00;99812.97;109172;1254;72640;-49
2023/10/19 11:41:20;;;;;;;4.50;4.00;;;;;;;11.39;100.00;99810.95;109104;1254;68448;-49
2023/10/19 11:43:48;;;;;;;4.10;3.70;;;;;;;11.40;100.00;99807.80;108002;1254;71573;-49
2023/10/19 11:46:17;;;;;;;4.30;2.80;;;;;;;11.43;100.00;99799.97;104813;1254;61012;-49
2023/10/19 11:48:46;;;;;;;4.30;3.90;;;;;;;11.46;100.00;99795.15;109083;1253;60061;-49
2023/10/19 11:51:15;;;;;;;4.50;3.40;;;;;;;11.49;100.00;99793.02;108153;1254;74319;-48
2023/10/19 11:53:42;;;;;;;3.70;3.00;;;;;;;11.51;100.00;99784.98;105289;1257;67565;-50